x

Shumagin Islands - 85nm South Of Sand Point, Ak (46075) Wave Buoy

9:50 - Wed 16th Apr 2014 All times are UTC.

  • Sig Wave height 9.2ft
  • Peak Period 11s
  • Average Period 8s
  • Wind
    11mph, 13mph gusts
  • Sea Temp 41°f
  • Ar Temp 40°f
  • Sea Pressure 1002.7mb

More Historic Weather Station data

Upgrade to MSW Pro to gain access to the past 30 days of data for over 8000 Wavebouys and Weather Stations around the globe.

Join Pro

Comparision Forecast

View Surf forecast
   
Qua 04/16 9:50 9ft 11s 8s 11 13 mph 1002.7mb 41f 40f
8:50 10.5ft 11s 8s 11 13 mph 1003mb 41f 39f
7:50 10ft 11s 8s 13 18 mph 1003mb 41f 39f
6:50 11ft 12s 8s 4 7 mph 1003.1mb 41f 39f
5:50 12.5ft 12s 9s 11 16 mph 1003.1mb 41f 40f
4:50 11ft 13s 8s 11 16 mph 1003.2mb 41f 38f
3:50 11.5ft 12s 9s 9 11 mph 1003.2mb 41f 39f
2:50 11ft 13s 8s 7 13 mph 1003.3mb 41f 38f
1:50 11ft 14s 9s 13 18 mph 1003.5mb 41f 40f
12:50 11ft 12s 8s 18 20 mph 1003.6mb 41f 39f
11:50 9.5ft 12s 8s 13 20 mph 1003.8mb 41f 40f
10:50 9.5ft 11s 8s 13 16 mph 1004mb 41f 39f
9:50 11ft 12s 8s 13 18 mph 1004.2mb 41f 39f
8:50 10.5ft 11s 8s 16 20 mph 1004.3mb 41f 40f
7:50 10.5ft 11s 8s 16 18 mph 1004.5mb 41f 40f
6:50 11ft 11s 8s 16 18 mph 1004.4mb 41f 40f
5:50 9ft 11s 8s 13 16 mph 1004.4mb 41f 40f
4:50 9.5ft 10s 8s 13 16 mph 1004.3mb 41f 40f
3:50 7.5ft 11s 7s 16 18 mph 1004.3mb 41f 41f
2:50 7ft 9s 7s 13 18 mph 1004.2mb 41f 41f
1:50 7ft 10s 7s 13 18 mph 1004.3mb 41f 41f
12:50 7.5ft 11s 7s 13 18 mph 1004.3mb 41f 41f
Ter 04/15 11:50 7ft 10s 7s 16 20 mph 1004.1mb 41f 40f
10:50 8ft 11s 7s 11 16 mph 1003.9mb 41f 40f
9:50 7.5ft 11s 7s 13 18 mph 1003.7mb 41f 41f
8:50 7.5ft 10s 7s 13 18 mph 1003.6mb 41f 41f
7:50 9ft 11s 7s 13 18 mph 1003.5mb 41f 41f
6:50 10ft 11s 7s 13 16 mph 1003.4mb 41f 41f
5:50 9.5ft 10s 7s 13 16 mph 1003.5mb 40f 41f
4:50 9.5ft 11s 7s 13 16 mph 1003.3mb 40f 41f
3:50 8.5ft 11s 7s 13 16 mph 1003.2mb 40f 40f
2:50 7.5ft 11s 6s 16 18 mph 1003.1mb 40f 40f
1:50 7.5ft 11s 7s 16 20 mph 1003.1mb 40f 40f
12:50 7.5ft 11s 6s 18 20 mph 1002.9mb 40f 40f
11:50 7.5ft 10s 6s 16 20 mph 1003mb 40f 40f
10:50 8ft 11s 7s 18 20 mph 1003.3mb 41f 40f
9:50 8ft 10s 7s 18 22 mph 1003.5mb 41f 40f
8:50 9ft 11s 7s 18 22 mph 1003.9mb 41f 40f
7:50 9ft 10s 8s 16 20 mph 1004mb 41f 39f
6:50 8ft 10s 7s 13 18 mph 1004.4mb 41f 39f
5:50 9ft 9s 7s 16 18 mph 1004.7mb 41f 39f
4:50 9ft 11s 7s 13 16 mph 1004.6mb 41f 39f
3:50 9ft 10s 7s 9 13 mph 1004.8mb 41f 40f
2:50 10ft 9s 8s 7 11 mph 1005.3mb 41f 40f
1:50 10ft 10s 8s 4 7 mph 1005.9mb 41f 40f
12:50 9.5ft 8s 8s 9 11 mph 1006.7mb 41f 40f
Seg 04/14 11:50 9ft 9s 7s 9 11 mph 1007.2mb 41f 40f
10:50 9.5ft 10s 8s 11 13 mph 1007.4mb 41f 41f
9:50 11ft 10s 8s 9 16 mph 1007.4mb 41f 40f
8:50 11ft 9s 7s 4 7 mph 1007.8mb 41f 40f
7:50 12.5ft 11s 8s 7 9 mph 1008mb 41f 39f
6:50 11.5ft 10s 8s 9 13 mph 1008.1mb 41f 40f
5:50 11ft 11s 8s 11 13 mph 1007.8mb 40f 40f
4:50 11ft 9s 7s 13 16 mph 1007.6mb 40f 40f
3:50 11ft 8s 7s 16 22 mph 1007.2mb 40f 40f
2:50 10ft 9s 7s 20 25 mph 1006.6mb 40f 40f
1:50 11ft 9s 7s 22 29 mph 1006.1mb 40f 40f
12:50 9.5ft 9s 7s 20 27 mph 1005.2mb 40f 40f
11:50 8.5ft 10s 7s 18 25 mph 1004.1mb 40f 41f
10:50 9.5ft 9s 7s 16 20 mph 1003.1mb 40f 41f
9:50 10ft 8s 7s 13 18 mph 1001.9mb 40f 41f
8:50 10ft 9s 7s 9 11 mph 1000.7mb 40f 41f
7:50 11ft 9s 7s 4 7 mph 1000mb 40f 41f
6:50 9ft 9s 6s 2 7 mph 999.2mb 40f 41f
5:50 10ft 8s 6s 9 11 mph 998.2mb 40f 41f
4:50 11ft 8s 6s 13 18 mph 997.3mb 40f 41f
3:50 11ft 8s 7s 20 22 mph 996.9mb 40f 41f
2:50 10.5ft 8s 6s 22 25 mph 996.8mb 40f 41f
1:50 10ft 8s 6s 22 27 mph 997mb 40f 41f
12:50 9.5ft 9s 6s 25 31 mph 997.4mb 40f 41f
Dom 04/13 11:50 9.5ft 8s 6s 25 29 mph 998mb 40f 42f
10:50 9.5ft 8s 6s 25 29 mph 998.6mb 40f 41f
9:50 9ft 7s 6s 27 31 mph 999.1mb 40f 42f
8:50 10ft 7s 6s 27 31 mph 999.7mb 40f 41f
7:50 9ft 8s 6s 27 31 mph 1000mb 40f 41f
6:50 9ft 11s 6s 27 31 mph 1000.4mb 40f 41f
5:50 9ft 10s 6s 27 34 mph 1001mb 40f 41f
4:50 9ft 10s 6s 27 34 mph 1001.7mb 40f 40f
3:50 8ft 9s 6s 27 31 mph 1002.6mb 40f 40f
2:50 8ft 11s 6s 25 31 mph 1003.6mb 40f 40f
1:50 8ft 10s 6s 20 25 mph 1004.6mb 40f 40f
12:50 8ft 9s 7s 18 22 mph 1005.6mb 40f 39f
11:50 8ft 11s 7s 20 25 mph 1006mb 40f 40f
10:50 8ft 10s 7s 16 22 mph 1006.5mb 40f 39f
9:50 9ft 11s 7s 13 16 mph 1006.4mb 40f 40f
8:50 9ft 9s 7s 18 22 mph 1006.4mb 40f 40f
7:50 8.5ft 12s 7s 13 16 mph 1006.3mb 40f 40f
6:50 10ft 10s 7s 16 18 mph 1006mb 40f 40f
5:50 9ft 9s 7s 16 20 mph 1005.9mb 40f 40f
4:50 10.5ft 8s 8s 13 16 mph 1005.8mb 40f 40f
3:50 10.5ft 9s 7s 13 18 mph 1005.7mb 41f 40f
2:50 11ft 9s 7s 13 18 mph 1005.4mb 41f 41f
1:50 10ft 9s 7s 16 18 mph 1005.2mb 41f 41f
12:50 11ft 9s 7s 13 18 mph 1005.4mb 41f 40f
Sáb 04/12 11:50 11ft 8s 8s 16 18 mph 1005.5mb 40f 40f
10:50 9ft 9s 7s 11 18 mph 1005.4mb 40f 40f